METAR Data
IDs: Format: Raw Decoded Include TAF

Data at: 0733 UTC 18 Sep 2021

LICZ 180655Z 09004KT 9999 FEW020 BKN100 25/17 Q1015 RMK BKN VIS MIN 9999 WIND THR28 09004KT WIND THR10 09004KT A2998 BLU